Time;durP1;ratioP1;P1;durP2;ratioP2;P2;SDS_P1;SDS_P2;PMS_P1;PMS_P2;Temp;Humidity;BMP_temperature;BMP_pressure;BME280_temperature;BME280_humidity;BME280_pressure;Samples;Min_cycle;Max_cycle;Signal;HPM_P1;HPM_P2
2022/05/14 00:04:27;;;;;;;4.32;2.03;;;;;;;18.80;58.25;97109.47;10462753;28;20396;-23
2022/05/14 00:09:28;;;;;;;2.70;1.77;;;;;;;18.85;58.28;97117.97;10451821;28;20033;-22
2022/05/14 00:14:28;;;;;;;1.98;1.63;;;;;;;18.84;58.18;97117.09;10451410;28;20808;-21
2022/05/14 00:19:29;;;;;;;2.63;2.27;;;;;;;18.83;58.32;97117.94;10451243;28;20458;-22
2022/05/14 00:24:29;;;;;;;1.80;1.67;;;;;;;18.82;58.27;97116.25;10470082;28;20049;-22
2022/05/14 00:29:30;;;;;;;1.77;1.57;;;;;;;18.81;58.47;97109.50;10451495;28;20403;-21
2022/05/14 00:34:31;;;;;;;2.65;2.10;;;;;;;18.81;58.34;97108.63;10448766;28;20480;-23
2022/05/14 00:39:31;;;;;;;2.00;1.80;;;;;;;19.07;59.76;97118.06;10463087;28;20036;-22
2022/05/14 00:44:31;;;;;;;3.13;2.37;;;;;;;19.24;60.08;97119.00;10491098;28;20287;-21
2022/05/14 00:49:34;;;;;;;3.90;2.53;;;;;;;19.13;58.57;97119.78;10458786;28;20439;-21
2022/05/14 00:54:43;;;;;;;2.10;1.77;;;;;;;19.00;58.15;97112.97;10460434;28;20029;-22
2022/05/14 00:59:44;;;;;;;2.47;1.92;;;;;;;18.88;58.14;97105.28;10491357;28;20028;-22
2022/05/14 01:04:45;;;;;;;2.33;1.87;;;;;;;18.87;58.27;97106.13;10488295;28;20028;-23
2022/05/14 01:09:55;;;;;;;2.08;1.88;;;;;;;18.84;58.29;97112.03;10474596;28;20029;-23
2022/05/14 01:15:19;;;;;;;2.97;2.10;;;;;;;18.82;58.22;97101.03;10449045;28;20042;-22
2022/05/14 01:20:20;;;;;;;1.77;1.60;;;;;;;18.82;58.20;97097.66;10468602;28;20379;-22
2022/05/14 01:31:01;;;;;;;1.65;1.45;;;;;;;18.82;58.39;97102.75;10497942;28;20036;-22
2022/05/14 01:36:06;;;;;;;1.98;1.77;;;;;;;18.80;58.28;97109.47;10471043;28;20041;-21
2022/05/14 01:41:07;;;;;;;2.35;1.90;;;;;;;19.00;59.50;97101.09;10456973;28;20037;-22
2022/05/14 01:46:08;;;;;;;3.72;2.00;;;;;;;19.19;60.52;97100.34;10456068;28;20431;-21
2022/05/14 01:51:08;;;;;;;2.83;1.45;;;;;;;19.13;58.43;97112.16;10467123;28;20154;-22
2022/05/14 01:56:09;;;;;;;1.92;1.63;;;;;;;19.00;58.24;97107.91;10457053;28;20037;-22
2022/05/14 02:01:15;;;;;;;3.38;1.75;;;;;;;18.89;58.13;97105.31;10463828;28;20109;-22
2022/05/14 02:06:16;;;;;;;1.70;1.55;;;;;;;18.86;58.25;97104.44;10497577;28;20052;-22
2022/05/14 02:11:18;;;;;;;2.30;1.77;;;;;;;18.81;58.18;97106.97;10468970;28;20379;-22
2022/05/14 02:16:22;;;;;;;3.35;1.83;;;;;;;18.83;57.92;97104.44;10454237;28;20093;-21
2022/05/14 02:21:24;;;;;;;2.30;1.85;;;;;;;18.83;58.10;97099.34;10462746;28;20063;-22
2022/05/14 02:26:27;;;;;;;3.47;2.10;;;;;;;18.81;58.33;97101.03;10466328;28;20085;-22
2022/05/14 02:31:28;;;;;;;2.15;1.90;;;;;;;18.81;58.34;97106.09;10454357;28;20032;-21
2022/05/14 02:36:29;;;;;;;2.33;1.40;;;;;;;18.78;58.11;97101.00;10453858;28;20037;-22
2022/05/14 02:41:29;;;;;;;2.03;1.80;;;;;;;18.99;59.95;97096.06;10454767;28;20495;-22
2022/05/14 02:46:30;;;;;;;3.87;2.40;;;;;;;19.20;61.05;97096.16;10455136;28;20035;-23
2022/05/14 02:51:30;;;;;;;1.70;1.40;;;;;;;19.16;58.62;97086.81;10453134;28;20048;-22
2022/05/14 02:56:31;;;;;;;2.50;1.42;;;;;;;19.00;58.30;97097.75;10454121;28;20036;-21
2022/05/14 03:01:31;;;;;;;1.98;1.73;;;;;;;18.89;58.20;97089.22;10464343;28;20036;-23
2022/05/14 03:06:32;;;;;;;3.60;2.30;;;;;;;18.86;58.30;97089.22;10494207;28;20495;-21
2022/05/14 03:11:33;;;;;;;1.63;1.45;;;;;;;18.83;58.16;97077.34;10464792;28;20029;-21
2022/05/14 03:16:33;;;;;;;3.42;1.75;;;;;;;18.79;58.35;97077.34;10451955;28;20037;-21
2022/05/14 03:21:35;;;;;;;1.80;1.30;;;;;;;18.81;58.11;97080.72;10460341;28;20029;-22
2022/05/14 03:26:41;;;;;;;1.80;1.50;;;;;;;18.77;58.23;97079.03;10464037;28;20037;-22
2022/05/14 03:31:42;;;;;;;2.00;1.60;;;;;;;18.77;58.21;97081.56;10460757;28;20045;-22
2022/05/14 03:36:42;;;;;;;1.77;1.45;;;;;;;18.70;58.37;97067.16;10494250;28;20399;-22
2022/05/14 03:41:45;;;;;;;2.50;1.83;;;;;;;18.89;59.67;97086.69;10461235;28;20064;-21
2022/05/14 03:46:46;;;;;;;4.80;1.70;;;;;;;19.15;60.34;97082.53;10456147;28;20020;-23
2022/05/14 03:51:47;;;;;;;2.53;1.92;;;;;;;19.18;58.04;97087.66;10482117;28;20029;-22
2022/05/14 03:56:47;;;;;;;2.40;1.83;;;;;;;19.02;58.36;97083.38;10451539;28;20033;-21
2022/05/14 04:01:48;;;;;;;3.17;1.70;;;;;;;18.95;58.09;97079.97;10453554;28;20087;-23
2022/05/14 04:06:48;;;;;;;2.20;1.40;;;;;;;18.86;58.08;97089.22;10450617;28;20028;-21
2022/05/14 04:11:49;;;;;;;1.63;1.52;;;;;;;18.82;58.14;97087.53;10481162;28;20294;-22
2022/05/14 04:16:49;;;;;;;2.53;1.60;;;;;;;18.74;58.00;97092.53;10432940;28;20032;-23
2022/05/14 04:21:50;;;;;;;2.42;1.30;;;;;;;18.78;58.20;97093.41;10459924;28;20067;-23
2022/05/14 04:26:51;;;;;;;3.08;1.40;;;;;;;18.73;58.17;97088.31;10458981;28;20032;-21
2022/05/14 04:31:51;;;;;;;2.50;1.40;;;;;;;18.75;58.16;97090.88;10451593;28;20040;-21
2022/05/14 04:36:52;;;;;;;1.95;1.20;;;;;;;18.74;58.46;97089.16;10448971;28;20037;-23
2022/05/14 04:41:53;;;;;;;1.85;1.40;;;;;;;18.79;58.17;97088.34;10450217;28;20406;-22
2022/05/14 04:46:55;;;;;;;3.03;1.77;;;;;;;19.08;59.97;97101.16;10449924;28;20027;-22
2022/05/14 04:51:56;;;;;;;1.45;1.27;;;;;;;19.19;58.92;97092.75;10448758;28;20762;-22
2022/05/14 04:56:58;;;;;;;1.45;1.20;;;;;;;19.03;58.39;97103.69;10448197;28;20060;-22
2022/05/14 05:07:21;;;;;;;1.98;1.40;;;;;;;18.88;58.06;97102.75;10489077;28;20653;-22
2022/05/14 05:12:22;;;;;;;2.20;1.48;;;;;;;18.84;57.99;97111.19;10453079;28;20102;-21
2022/05/14 05:17:22;;;;;;;1.60;1.50;;;;;;;18.79;57.99;97108.66;10451460;28;20040;-21
2022/05/14 05:22:22;;;;;;;1.60;1.20;;;;;;;18.80;58.11;97117.09;10463386;28;20423;-22
2022/05/14 05:27:23;;;;;;;1.67;1.33;;;;;;;18.77;58.09;97114.53;10453871;28;20033;-22
2022/05/14 05:32:24;;;;;;;1.30;1.13;;;;;;;18.74;58.32;97104.41;10448919;28;20097;-21
2022/05/14 05:37:24;;;;;;;2.00;1.73;;;;;;;18.80;58.54;97112.00;10447534;28;20530;-23
2022/05/14 05:42:25;;;;;;;5.27;2.03;;;;;;;18.81;59.08;97106.09;10444380;28;20044;-21
2022/05/14 05:47:25;;;;;;;4.90;1.93;;;;;;;19.03;59.76;97108.75;10444777;28;20290;-22
2022/05/14 05:52:26;;;;;;;5.95;1.80;;;;;;;19.09;59.76;97102.84;10446547;28;20673;-21
2022/05/14 05:57:36;;;;;;;5.88;2.03;;;;;;;18.75;59.12;97098.47;10446555;28;20025;-20
2022/05/14 06:02:37;;;;;;;2.47;1.73;;;;;;;18.84;58.21;97108.66;10487574;28;20062;-22
2022/05/14 06:07:39;;;;;;;2.30;1.30;;;;;;;18.84;58.26;97101.06;10477929;28;20041;-22
2022/05/14 06:12:39;;;;;;;3.00;1.40;;;;;;;18.84;58.15;97111.19;10475740;28;20052;-21
2022/05/14 06:17:43;;;;;;;3.10;1.63;;;;;;;18.88;57.92;97107.81;10496845;28;20057;-22
2022/05/14 06:22:44;;;;;;;9.23;2.25;;;;;;;18.90;59.86;97112.06;10490624;28;20036;-22
2022/05/14 06:27:45;;;;;;;12.52;3.15;;;;;;;18.91;58.62;97112.94;10469854;28;20036;-22
2022/05/14 06:32:45;;;;;;;4.25;1.65;;;;;;;18.88;58.58;97108.69;10461979;28;20116;-21
2022/05/14 06:37:46;;;;;;;6.00;1.63;;;;;;;18.93;58.94;97117.16;10454958;28;20058;-21
2022/05/14 06:42:46;;;;;;;6.60;2.00;;;;;;;18.90;58.26;97106.13;10455137;28;20345;-22
2022/05/14 06:47:47;;;;;;;5.80;2.13;;;;;;;19.02;59.56;97111.28;10453602;28;20061;-21
2022/05/14 06:52:51;;;;;;;9.02;1.88;;;;;;;19.19;59.28;97112.22;10454408;28;20369;-22
2022/05/14 06:57:52;;;;;;;5.60;2.10;;;;;;;19.12;58.12;97123.16;10454529;28;20029;-22
2022/05/14 07:06:37;;;;;;;5.93;2.50;;;;;;;18.98;57.98;97120.56;10477891;28;20048;-21
2022/05/14 07:08:14;;;;;;;4.18;1.42;;;;;;;18.96;58.30;97116.31;10454274;28;20376;-22
2022/05/14 07:13:14;;;;;;;4.87;1.70;;;;;;;18.53;58.83;97125.41;10463203;28;20037;-22
2022/05/14 07:18:14;;;;;;;4.72;1.58;;;;;;;18.38;59.21;97114.28;10453720;28;20287;-23
2022/05/14 07:23:15;;;;;;;2.60;1.77;;;;;;;18.28;59.31;97127.72;10469591;28;20130;-23
2022/05/14 07:28:16;;;;;;;2.90;1.60;;;;;;;18.12;60.17;97125.91;10453426;28;20283;-22
2022/05/14 07:33:17;;;;;;;3.20;1.90;;;;;;;18.10;60.54;97127.59;10452627;28;20032;-22
2022/05/14 07:38:18;;;;;;;3.17;2.00;;;;;;;18.08;60.83;97116.59;10455090;28;20095;-22
2022/05/14 07:43:24;;;;;;;4.15;2.17;;;;;;;18.01;61.39;97124.97;10485624;28;20044;-21
2022/05/14 07:48:31;;;;;;;3.07;2.47;;;;;;;18.10;61.27;97122.53;10452528;28;20056;-22
2022/05/14 07:53:31;;;;;;;;;;;;;;;18.16;60.96;97117.50;10456097;28;20301;-22
2022/05/14 07:58:32;;;;;;;5.38;2.30;;;;;;;18.10;61.23;97127.59;10474613;28;20054;-23
2022/05/14 08:03:33;;;;;;;3.38;1.90;;;;;;;18.16;60.52;97117.50;10483785;28;20529;-21
2022/05/14 08:08:34;;;;;;;7.40;3.15;;;;;;;18.11;61.02;97114.06;10486597;28;20037;-22
2022/05/14 08:13:34;;;;;;;5.15;2.00;;;;;;;18.26;60.65;97106.59;10450620;28;20060;-22
2022/05/14 08:18:35;;;;;;;6.03;2.20;;;;;;;18.32;60.11;97106.69;10451595;28;20037;-22
2022/05/14 08:28:54;;;;;;;4.38;2.05;;;;;;;18.36;59.76;97095.69;10461677;28;20398;-21
2022/05/14 08:33:54;;;;;;;3.07;1.77;;;;;;;18.38;59.95;97099.09;10492580;28;20036;-22
2022/05/14 08:38:55;;;;;;;4.87;1.80;;;;;;;18.36;59.15;97100.78;10475086;28;20646;-22
2022/05/14 08:44:03;;;;;;;1.90;1.40;;;;;;;18.28;59.45;97095.63;10450478;28;20308;-21
2022/05/14 08:49:13;;;;;;;3.22;1.73;;;;;;;18.50;59.64;97094.94;10450218;28;20291;-22
2022/05/14 08:54:16;;;;;;;3.22;2.03;;;;;;;18.73;59.87;97100.13;10449884;28;20045;-22
2022/05/14 08:59:55;;;;;;;4.35;1.70;;;;;;;18.60;59.43;97095.84;10471010;28;20524;-22
2022/05/14 09:05:00;;;;;;;3.40;1.70;;;;;;;18.67;59.11;97092.50;10463267;28;20032;-21
2022/05/14 09:10:04;;;;;;;3.17;2.17;;;;;;;18.81;60.51;97096.81;10449119;28;20048;-22
2022/05/14 09:15:14;;;;;;;2.60;1.52;;;;;;;18.68;59.23;97096.75;10449855;28;20066;-21
2022/05/14 09:20:25;;;;;;;5.20;1.98;;;;;;;18.58;59.19;97093.28;10449523;28;20078;-22
2022/05/14 09:25:36;;;;;;;2.05;1.40;;;;;;;18.55;59.27;97094.97;10488107;28;20067;-23
2022/05/14 09:30:40;;;;;;;3.22;1.98;;;;;;;18.61;58.96;97102.63;10490910;28;20032;-22
2022/05/14 09:35:59;;;;;;;4.53;1.73;;;;;;;18.58;59.25;97083.16;10463152;28;20086;-22
2022/05/14 09:41:13;;;;;;;4.65;1.92;;;;;;;18.58;58.97;97082.31;10473974;28;20082;-23
2022/05/14 09:46:28;;;;;;;2.55;1.80;;;;;;;18.58;59.10;97077.25;10494160;28;20029;-21
2022/05/14 09:51:36;;;;;;;4.43;1.80;;;;;;;18.57;59.06;97071.31;10457316;28;20487;-22
2022/05/14 09:57:20;;;;;;;3.28;2.05;;;;;;;18.66;58.99;97078.16;10485935;28;20047;-22
2022/05/14 10:02:35;;;;;;;4.80;1.80;;;;;;;18.74;58.80;97076.50;10496832;28;20399;-22
2022/05/14 10:07:46;;;;;;;55.88;6.15;;;;;;;18.66;60.39;97080.69;10498122;28;20388;-22
2022/05/14 10:13:08;;;;;;;16.52;2.90;;;;;;;18.75;59.62;97073.13;10457729;28;20560;-22
2022/05/14 10:18:30;;;;;;;8.27;1.85;;;;;;;18.63;59.22;97075.56;10474963;28;20058;-22
2022/05/14 10:29:41;;;;;;;9.32;2.30;;;;;;;18.56;59.22;97076.38;10498172;28;20041;-22
2022/05/14 10:35:00;;;;;;;7.13;1.95;;;;;;;18.55;59.16;97070.47;10466466;28;20036;-22
2022/05/14 10:40:18;;;;;;;2.85;1.73;;;;;;;18.62;59.17;97076.41;10456287;28;20207;-22
2022/05/14 10:45:34;;;;;;;6.70;2.58;;;;;;;18.59;59.02;97073.88;10454760;28;20503;-22
2022/05/14 10:50:35;;;;;;;6.35;2.05;;;;;;;18.57;59.01;97070.50;10488765;28;20044;-22
2022/05/14 10:55:58;;;;;;;3.78;1.80;;;;;;;18.64;59.03;97067.13;10472899;28;20033;-22
2022/05/14 11:00:59;;;;;;;4.97;1.90;;;;;;;18.61;59.04;97060.38;10466566;28;20083;-22
2022/05/14 11:06:02;;;;;;;4.70;3.05;;;;;;;18.60;59.06;97055.28;10453919;28;20116;-21
2022/05/14 11:11:46;;;;;;;5.82;3.40;;;;;;;18.67;58.87;97052.78;10456599;28;20641;-20
2022/05/14 11:16:49;;;;;;;7.40;3.30;;;;;;;18.77;58.62;97048.59;10365678;28;20037;-21
2022/05/14 11:21:50;;;;;;;4.22;2.40;;;;;;;18.69;58.89;97040.09;10445711;28;20052;-28
2022/05/14 11:26:53;;;;;;;9.45;3.15;;;;;;;18.87;60.09;97035.09;10462864;28;20052;-22
2022/05/14 11:31:56;;;;;;;3.53;2.20;;;;;;;18.69;59.67;97029.97;10453785;28;20106;-22
2022/05/14 11:37:00;;;;;;;7.97;2.42;;;;;;;18.66;59.48;97029.97;10487104;28;20036;-22
2022/05/14 11:42:29;;;;;;;6.05;1.80;;;;;;;18.77;59.35;97018.16;10460504;28;20083;-23
2022/05/14 11:47:32;;;;;;;3.42;2.20;;;;;;;18.99;61.82;97027.53;10451265;28;20082;-21
2022/05/14 11:52:57;;;;;;;8.85;2.63;;;;;;;18.76;60.32;97007.16;10452435;28;20048;-21
2022/05/14 11:58:37;;;;;;;3.80;1.73;;;;;;;18.59;59.79;96997.81;10458204;28;20403;-20
2022/05/14 12:03:41;;;;;;;7.15;2.65;;;;;;;18.98;60.04;97018.22;10482396;28;20476;-22
2022/05/14 12:09:21;;;;;;;7.10;2.47;;;;;;;19.09;61.75;97008.94;10461226;28;20110;-22
2022/05/14 12:14:31;;;;;;;6.82;2.22;;;;;;;19.06;60.04;97006.38;10451454;28;20150;-21
2022/05/14 12:19:39;;;;;;;6.97;2.83;;;;;;;18.79;60.71;96991.97;10451054;28;20033;-21
2022/05/14 12:24:51;;;;;;;3.42;1.88;;;;;;;18.84;59.65;97005.47;10469906;28;20491;-21
2022/05/14 12:30:01;;;;;;;5.35;1.98;;;;;;;18.93;59.75;96997.06;10450973;28;20127;-22
2022/05/14 12:35:12;;;;;;;3.95;1.98;;;;;;;19.03;59.90;96991.16;10450530;28;20037;-21
2022/05/14 12:40:25;;;;;;;2.20;1.27;;;;;;;18.73;59.50;96991.06;10450178;28;20091;-22
2022/05/14 12:46:08;;;;;;;4.25;1.77;;;;;;;18.86;61.64;96982.66;10451257;28;20417;-22
2022/05/14 12:51:09;;;;;;;3.10;1.75;;;;;;;18.77;59.50;96988.53;10452769;28;20037;-21
2022/05/14 12:56:10;;;;;;;2.35;1.60;;;;;;;18.68;59.65;96982.63;10452026;28;20450;-24
2022/05/14 13:01:11;;;;;;;4.53;2.10;;;;;;;18.95;60.72;96977.63;10458915;28;20032;-23
2022/05/14 13:06:22;;;;;;;4.28;1.67;;;;;;;19.02;59.70;96984.41;10451368;28;20029;-22
2022/05/14 13:11:25;;;;;;;4.40;1.75;;;;;;;18.96;59.12;96962.41;10451440;28;20032;-20
2022/05/14 13:16:29;;;;;;;2.92;1.70;;;;;;;18.86;59.17;96967.44;10455740;28;20035;-22
2022/05/14 13:21:34;;;;;;;2.33;1.63;;;;;;;18.81;59.26;96958.97;10492039;28;20060;-23
2022/05/14 13:26:45;;;;;;;3.20;2.00;;;;;;;18.55;59.36;96932.69;10463734;28;20052;-21
2022/05/14 13:31:48;;;;;;;3.53;2.00;;;;;;;19.06;61.84;96950.56;10454171;28;20067;-22
2022/05/14 13:37:07;;;;;;;2.22;1.73;;;;;;;19.12;61.51;96942.97;10492952;28;20033;-23
2022/05/14 13:42:15;;;;;;;3.28;1.88;;;;;;;18.87;59.67;96933.63;10457945;28;20060;-22
2022/05/14 13:47:20;;;;;;;3.53;1.63;;;;;;;18.75;59.79;96928.53;10451395;28;20029;-22
2022/05/14 13:52:26;;;;;;;2.55;1.73;;;;;;;18.97;61.85;96927.72;10452148;28;20086;-22
2022/05/14 13:57:26;;;;;;;2.65;2.13;;;;;;;19.17;61.81;96920.97;10487617;28;20040;-22
2022/05/14 14:02:28;;;;;;;2.78;1.95;;;;;;;19.16;61.78;96917.59;10478751;28;20488;-21
2022/05/14 14:07:32;;;;;;;2.92;1.80;;;;;;;19.13;60.55;96914.19;10451211;28;20039;-23
2022/05/14 14:12:33;;;;;;;3.47;2.00;;;;;;;19.16;60.65;96909.13;10451006;28;20052;-21
2022/05/14 14:17:34;;;;;;;3.60;1.97;;;;;;;19.25;61.89;96906.63;10450846;28;20388;-21
2022/05/14 14:22:34;;;;;;;4.28;2.00;;;;;;;19.14;60.84;96905.72;10466836;28;20476;-22
2022/05/14 14:27:35;;;;;;;2.77;2.00;;;;;;;19.20;60.40;96898.16;10454017;28;20119;-22
2022/05/14 14:32:37;;;;;;;2.60;2.00;;;;;;;19.17;61.86;96883.75;10452379;28;20773;-22
2022/05/14 14:37:39;;;;;;;2.58;1.75;;;;;;;19.03;60.04;96876.97;10455994;28;20041;-23
2022/05/14 14:42:40;;;;;;;3.08;1.67;;;;;;;19.22;62.05;96876.16;10455479;28;20037;-22
2022/05/14 14:47:44;;;;;;;3.80;1.80;;;;;;;19.21;62.14;96870.25;10455535;28;20037;-22
2022/05/14 14:52:46;;;;;;;6.85;2.17;;;;;;;19.04;60.51;96871.06;10455463;28;20446;-22
2022/05/14 14:57:47;;;;;;;2.22;1.67;;;;;;;19.16;62.39;96873.59;10454911;28;20395;-21
2022/05/14 15:02:57;;;;;;;2.80;2.00;;;;;;;19.24;61.87;96874.47;10475035;28;20082;-22
2022/05/14 15:08:01;;;;;;;2.55;1.77;;;;;;;19.26;61.46;96873.63;10496079;28;20119;-22
2022/05/14 15:13:04;;;;;;;2.38;1.40;;;;;;;19.12;60.09;96877.84;10495166;28;20089;-22
2022/05/14 15:18:04;;;;;;;3.63;1.70;;;;;;;19.21;62.01;96866.84;10488839;28;20471;-21
2022/05/14 15:23:06;;;;;;;2.33;1.52;;;;;;;19.09;60.08;96869.38;10472561;28;20056;-24
2022/05/14 15:28:07;;;;;;;1.80;1.70;;;;;;;18.82;60.29;96859.22;10453855;28;20035;-23
2022/05/14 15:33:09;;;;;;;3.30;1.80;;;;;;;19.05;62.86;96866.00;10453001;28;20037;-22
2022/05/14 15:38:10;;;;;;;2.00;1.50;;;;;;;18.95;60.16;96865.97;10453371;28;20576;-22
2022/05/14 15:43:14;;;;;;;2.90;1.95;;;;;;;19.19;62.58;96866.00;10493077;28;20116;-22
2022/05/14 15:48:23;;;;;;;3.85;1.58;;;;;;;19.32;62.11;96855.84;10489060;28;20029;-21
2022/05/14 15:53:25;;;;;;;3.38;1.83;;;;;;;19.07;60.26;96855.81;10452004;28;20032;-21
2022/05/14 15:58:28;;;;;;;1.85;1.40;;;;;;;19.17;60.61;96847.38;10452340;28;20037;-21
2022/05/14 16:03:29;;;;;;;3.35;1.70;;;;;;;19.08;61.96;96847.38;10455897;28;20112;-31
2022/05/14 16:08:29;;;;;;;2.60;1.70;;;;;;;19.23;60.48;96848.25;10452812;28;20108;-21
2022/05/14 16:18:51;;;;;;;13.73;3.22;;;;;;;19.34;61.45;96851.59;10452023;28;20122;-23
2022/05/14 16:23:54;;;;;;;10.70;3.13;;;;;;;19.37;60.43;96850.75;10463195;28;20132;-21
2022/05/14 16:28:54;;;;;;;8.43;2.25;;;;;;;19.34;60.68;96844.00;10450954;28;20060;-21
2022/05/14 16:33:55;;;;;;;3.50;1.80;;;;;;;19.39;59.10;96838.91;10457685;28;20064;-22
2022/05/14 16:38:57;;;;;;;3.08;1.70;;;;;;;18.85;58.86;96837.22;10449035;28;20033;-21
2022/05/14 16:43:57;;;;;;;4.22;2.10;;;;;;;19.27;60.93;96839.75;10450348;28;20036;-21
2022/05/14 16:48:58;;;;;;;4.95;1.45;;;;;;;19.05;59.44;96842.28;10461310;28;20047;-20
2022/05/14 16:54:04;;;;;;;8.45;2.67;;;;;;;19.41;61.62;96839.78;10450758;28;20037;-21
2022/05/14 16:59:04;;;;;;;4.65;1.90;;;;;;;19.53;61.09;96842.28;10446694;28;20087;-21
2022/05/14 17:04:05;;;;;;;5.73;2.20;;;;;;;19.57;60.76;96843.94;10449216;28;20457;-20
2022/05/14 17:09:06;;;;;;;5.40;2.43;;;;;;;19.55;60.42;96840.56;10449442;28;20041;-21
2022/05/14 17:14:06;;;;;;;3.50;2.00;;;;;;;19.57;60.18;96831.25;10449327;28;20029;-21
2022/05/14 17:19:06;;;;;;;7.97;2.10;;;;;;;19.54;59.90;96838.88;10450082;28;20178;-21
2022/05/14 17:24:11;;;;;;;7.43;1.90;;;;;;;19.55;60.45;96841.44;10469049;28;20366;-21
2022/05/14 17:29:11;;;;;;;5.78;2.03;;;;;;;19.50;60.13;96839.75;10449903;28;20127;-20
2022/05/14 17:34:13;;;;;;;2.80;1.70;;;;;;;19.54;60.63;96838.88;10468590;28;20206;-20
2022/05/14 17:44:38;;;;;;;4.45;1.55;;;;;;;19.45;60.85;96839.75;10449234;28;20112;-21
2022/05/14 17:49:39;;;;;;;3.17;2.37;;;;;;;19.51;60.86;96833.81;10448782;28;20063;-20
2022/05/14 17:54:40;;;;;;;3.40;1.92;;;;;;;19.04;59.22;96833.00;10461192;28;20040;-21
2022/05/14 17:59:41;;;;;;;1.85;1.50;;;;;;;18.85;59.33;96838.91;10490478;28;20514;-21
2022/05/14 18:04:42;;;;;;;4.70;1.75;;;;;;;18.64;59.19;96839.75;10456233;28;20032;-21
2022/05/14 18:09:43;;;;;;;4.25;1.60;;;;;;;18.55;59.41;96838.88;10456363;28;20033;-21
2022/05/14 18:14:43;;;;;;;3.75;1.70;;;;;;;18.65;59.18;96841.44;10493879;28;20036;-22
2022/05/14 18:19:44;;;;;;;3.80;1.83;;;;;;;18.55;59.44;96833.81;10482936;28;20037;-22
2022/05/14 18:24:44;;;;;;;4.00;1.60;;;;;;;18.50;59.73;96845.66;10475800;28;20479;-22
2022/05/14 18:29:53;;;;;;;2.33;1.50;;;;;;;18.38;59.95;96850.66;10456602;28;20037;-23
2022/05/14 18:34:54;;;;;;;1.70;1.30;;;;;;;18.34;60.02;96854.06;10455507;28;20291;-21
2022/05/14 18:39:57;;;;;;;3.92;1.70;;;;;;;18.32;60.33;96860.81;10455718;28;20094;-22
2022/05/14 18:44:57;;;;;;;6.25;1.90;;;;;;;18.31;60.43;96859.09;10457259;28;20403;-21
2022/05/14 18:49:58;;;;;;;3.15;1.42;;;;;;;18.37;60.03;96859.97;10473957;28;20036;-21
2022/05/14 18:54:58;;;;;;;2.17;1.33;;;;;;;18.45;59.67;96857.47;10468961;28;20041;-22
2022/05/14 18:59:58;;;;;;;2.10;1.47;;;;;;;18.42;59.68;96854.91;10474364;28;20498;-20
2022/05/14 19:10:18;;;;;;;3.17;1.67;;;;;;;18.20;59.51;96832.84;10461566;28;20049;-21
2022/05/14 19:15:19;;;;;;;5.20;1.90;;;;;;;18.38;59.82;96871.81;10450030;28;20053;-22
2022/05/14 19:20:19;;;;;;;3.67;1.55;;;;;;;18.33;59.70;96868.41;10451658;28;20025;-21
2022/05/14 19:25:20;;;;;;;3.38;1.48;;;;;;;18.27;59.31;96857.38;10454834;28;20127;-22
2022/05/14 19:30:21;;;;;;;3.80;1.33;;;;;;;18.29;59.51;96873.44;10479963;28;20496;-23
2022/05/14 19:35:22;;;;;;;4.03;1.50;;;;;;;18.37;59.45;96880.25;10449846;28;20037;-21
2022/05/14 19:40:32;;;;;;;3.50;1.60;;;;;;;18.32;59.50;96881.09;10449577;28;20051;-23
2022/05/14 19:45:37;;;;;;;6.65;1.63;;;;;;;18.31;59.16;96894.56;10448517;28;20585;-21
2022/05/14 19:50:38;;;;;;;4.57;1.65;;;;;;;18.19;59.55;96889.44;10449062;28;20044;-23
2022/05/14 19:55:39;;;;;;;3.75;1.58;;;;;;;18.17;59.46;96893.66;10469918;28;20033;-21
2022/05/14 20:00:42;;;;;;;3.78;1.58;;;;;;;18.10;59.74;96899.56;10460197;28;20051;-23
2022/05/14 20:05:45;;;;;;;3.15;2.00;;;;;;;18.15;59.66;96905.50;10456659;28;20041;-22
2022/05/14 20:10:46;;;;;;;3.10;1.80;;;;;;;18.10;59.61;96899.56;10447469;28;20033;-21
2022/05/14 20:15:47;;;;;;;3.25;1.50;;;;;;;18.07;59.34;96905.44;10475614;28;20070;-21
2022/05/14 20:20:50;;;;;;;8.43;2.30;;;;;;;18.07;59.55;96914.75;10459005;28;20029;-22
2022/05/14 20:25:53;;;;;;;3.75;1.80;;;;;;;18.07;59.74;96914.75;10476802;28;20499;-22
2022/05/14 20:30:53;;;;;;;7.47;2.30;;;;;;;18.03;59.87;96913.03;10472585;28;20111;-22
2022/05/14 20:35:54;;;;;;;6.75;1.73;;;;;;;17.95;59.89;96915.53;10486496;28;20108;-22
2022/05/14 20:40:54;;;;;;;4.15;1.80;;;;;;;17.97;59.70;96910.44;10459371;28;20081;-22
2022/05/14 20:45:55;;;;;;;3.80;1.73;;;;;;;17.90;59.47;96901.16;10486428;28;20494;-22
2022/05/14 20:50:55;;;;;;;7.10;2.30;;;;;;;17.90;59.33;96926.47;10450932;28;20384;-22
2022/05/14 20:55:56;;;;;;;4.03;2.03;;;;;;;17.85;59.74;96923.06;10449875;28;20400;-22
2022/05/14 21:00:56;;;;;;;7.27;2.03;;;;;;;17.77;59.91;96924.72;10456604;28;20283;-22
2022/05/14 21:05:57;;;;;;;9.32;2.63;;;;;;;17.76;59.92;96917.94;10455425;28;20056;-23
2022/05/14 21:10:57;;;;;;;8.43;2.00;;;;;;;17.75;60.10;96926.38;10450885;28;20510;-22
2022/05/14 21:15:58;;;;;;;2.90;2.00;;;;;;;17.79;59.86;96917.97;10449898;28;20399;-22
2022/05/14 21:20:58;;;;;;;2.05;1.73;;;;;;;17.79;59.86;96913.75;10452501;28;20051;-21
2022/05/14 21:25:59;;;;;;;2.40;1.97;;;;;;;17.82;60.05;96918.00;10466366;28;20241;-22
2022/05/14 21:30:59;;;;;;;4.43;2.15;;;;;;;17.77;59.91;96909.50;10450298;28;20041;-24
2022/05/14 21:41:18;;;;;;;4.80;2.53;;;;;;;17.72;60.10;96899.34;10449475;28;20294;-23
2022/05/14 21:46:19;;;;;;;3.90;2.07;;;;;;;17.62;60.19;96894.22;10457219;28;20033;-22
2022/05/14 21:51:19;;;;;;;5.27;1.93;;;;;;;17.63;60.38;96890.84;10457475;28;20491;-23
2022/05/14 21:56:19;;;;;;;2.83;2.27;;;;;;;17.63;60.07;96893.38;10456670;28;20036;-23
2022/05/14 22:01:24;;;;;;;3.90;1.90;;;;;;;17.65;60.01;96889.19;10466653;28;20043;-22
2022/05/14 22:06:26;;;;;;;4.45;2.10;;;;;;;17.63;59.80;96885.78;10457714;28;20051;-23
2022/05/14 22:11:26;;;;;;;5.05;1.75;;;;;;;17.61;60.05;96887.47;10457157;28;20064;-23
2022/05/14 22:16:26;;;;;;;4.53;1.80;;;;;;;17.56;60.36;96876.50;10456938;28;20504;-22
2022/05/14 22:21:27;;;;;;;6.23;2.10;;;;;;;17.49;60.34;96870.50;10463002;28;20043;-23
2022/05/14 22:26:27;;;;;;;7.53;2.10;;;;;;;17.51;60.16;96880.66;10469019;28;20381;-22
2022/05/14 22:31:28;;;;;;;5.07;1.80;;;;;;;17.49;60.43;96872.22;10455904;28;20048;-22
2022/05/14 22:36:28;;;;;;;4.23;2.10;;;;;;;17.45;60.54;96880.63;10455986;28;20299;-22
2022/05/14 22:41:28;;;;;;;4.32;1.75;;;;;;;17.43;60.60;96869.66;10454958;28;20040;-23
2022/05/14 22:46:29;;;;;;;4.40;1.93;;;;;;;17.36;60.38;96866.22;10455719;28;20349;-22
2022/05/14 22:51:29;;;;;;;5.50;1.80;;;;;;;17.43;60.52;96869.66;10455749;28;20360;-23
2022/05/14 22:56:30;;;;;;;3.33;1.92;;;;;;;17.41;60.18;96869.63;10482613;28;20040;-22
2022/05/14 23:01:30;;;;;;;3.87;1.70;;;;;;;17.31;60.20;96856.88;10496231;28;20418;-24
2022/05/14 23:06:30;;;;;;;6.87;1.80;;;;;;;17.52;60.12;96872.22;10494741;28;20287;-23
2022/05/14 23:11:31;;;;;;;4.93;1.80;;;;;;;17.43;60.15;96867.09;10466663;28;20120;-21
2022/05/14 23:16:32;;;;;;;5.68;2.60;;;;;;;17.36;60.27;96867.91;10454284;28;20049;-23
2022/05/14 23:21:32;;;;;;;4.50;1.60;;;;;;;17.34;60.00;96867.03;10485161;28;20081;-24
2022/05/14 23:26:32;;;;;;;5.07;1.80;;;;;;;17.34;60.01;96856.91;10494444;28;20047;-23
2022/05/14 23:31:33;;;;;;;5.70;1.70;;;;;;;17.32;59.84;96863.63;10467622;28;20043;-24
2022/05/14 23:36:35;;;;;;;4.47;1.80;;;;;;;17.35;59.95;96872.09;10453313;28;20041;-24
2022/05/14 23:41:36;;;;;;;3.20;1.70;;;;;;;17.34;59.83;96856.91;10453499;28;20444;-22
2022/05/14 23:46:37;;;;;;;5.35;1.73;;;;;;;17.30;59.94;96848.44;10452303;28;20037;-23
2022/05/14 23:51:38;;;;;;;3.35;2.03;;;;;;;17.31;60.13;96846.75;10490396;28;20399;-24
2022/05/14 23:56:39;;;;;;;3.93;1.50;;;;;;;17.36;59.83;96837.53;10463062;28;20037;-24
